Time;durP1;ratioP1;P1;durP2;ratioP2;P2;SDS_P1;SDS_P2;PMS_P1;PMS_P2;Temp;Humidity;BMP_temperature;BMP_pressure;BME280_temperature;BME280_humidity;BME280_pressure;Samples;Min_cycle;Max_cycle;Signal;HPM_P1;HPM_P2
2022/05/25 00:03:00;;;;;;;14.98;11.40;;;;;;;15.17;79.94;99777.72;2174609;80;20959;-68
2022/05/25 00:06:06;;;;;;;11.63;10.25;;;;;;;15.10;80.27;99779.06;2181439;80;21102;-71
2022/05/25 00:09:08;;;;;;;13.78;10.85;;;;;;;14.99;80.57;99768.46;2186630;80;21070;-70
2022/05/25 00:12:10;;;;;;;11.93;10.75;;;;;;;14.95;80.67;99750.36;2188295;80;21037;-68
2022/05/25 00:15:12;;;;;;;16.73;11.33;;;;;;;14.96;80.78;99746.69;2188562;80;21010;-68
2022/05/25 00:18:14;;;;;;;15.03;11.90;;;;;;;15.00;80.91;99747.91;2187370;80;20967;-71
2022/05/25 00:21:16;;;;;;;12.05;10.75;;;;;;;15.03;81.02;99744.82;2182613;80;21601;-70
2022/05/25 00:24:18;;;;;;;12.40;10.82;;;;;;;15.01;81.19;99737.55;2184662;80;21511;-68
2022/05/25 00:27:19;;;;;;;14.95;11.73;;;;;;;14.91;81.16;99738.45;2183880;80;21028;-68
2022/05/25 00:30:21;;;;;;;12.65;11.28;;;;;;;14.95;81.40;99745.02;2182216;80;21010;-67
2022/05/25 00:33:23;;;;;;;13.30;11.20;;;;;;;14.99;81.28;99742.27;2190377;79;21033;-68
2022/05/25 00:36:25;;;;;;;15.60;11.80;;;;;;;15.00;81.42;99746.05;2183614;80;21023;-68
2022/05/25 00:39:27;;;;;;;12.28;11.08;;;;;;;15.03;81.59;99750.17;2188443;80;21089;-69
2022/05/25 00:42:28;;;;;;;12.30;11.08;;;;;;;15.06;81.62;99755.09;2187542;80;21073;-68
2022/05/25 00:45:40;;;;;;;11.70;10.55;;;;;;;15.10;81.55;99763.03;2188312;80;21045;-68
2022/05/25 00:48:52;;;;;;;12.28;11.05;;;;;;;15.12;81.45;99761.47;2188902;80;21023;-68
2022/05/25 00:51:59;;;;;;;13.28;11.60;;;;;;;15.05;81.27;99766.01;2185873;80;21502;-68
2022/05/25 00:55:05;;;;;;;12.90;11.43;;;;;;;15.04;81.48;99769.72;2189791;80;21388;-68
2022/05/25 00:58:07;;;;;;;13.50;11.28;;;;;;;15.05;81.45;99775.36;2188158;80;21485;-68
2022/05/25 01:01:09;;;;;;;13.32;10.95;;;;;;;15.07;81.44;99781.33;2189962;80;21415;-68
2022/05/25 01:04:12;;;;;;;12.03;10.60;;;;;;;15.11;81.52;99786.04;2194201;80;21044;-68
2022/05/25 01:07:40;;;;;;;13.98;10.68;;;;;;;15.13;81.46;99788.52;2185780;80;20943;-69
2022/05/25 01:10:59;;;;;;;14.90;11.45;;;;;;;15.15;81.47;99793.97;2184771;80;21365;-69
2022/05/25 01:14:44;;;;;;;12.95;11.65;;;;;;;15.18;81.53;99799.43;2189354;80;20960;-69
2022/05/25 01:18:09;;;;;;;14.10;11.38;;;;;;;15.20;81.57;99798.20;2181761;80;21070;-69
2022/05/25 01:21:21;;;;;;;15.15;11.75;;;;;;;15.17;81.56;99801.25;2182795;80;21017;-70
2022/05/25 01:25:00;;;;;;;16.48;11.93;;;;;;;15.18;81.61;99801.58;2167481;80;21575;-69
2022/05/25 01:28:22;;;;;;;13.83;12.35;;;;;;;15.20;81.61;99794.19;2133201;80;21080;-69
2022/05/25 01:31:38;;;;;;;17.15;10.95;;;;;;;15.17;81.47;99797.24;2183769;80;20982;-71
2022/05/25 01:35:09;;;;;;;13.00;10.80;;;;;;;15.16;81.54;99799.62;2186695;80;21072;-69
2022/05/25 01:38:30;;;;;;;12.18;11.03;;;;;;;15.17;81.55;99820.48;2149827;80;21002;-73
2022/05/25 01:41:45;;;;;;;11.73;10.30;;;;;;;15.15;81.70;99814.53;2183430;80;21006;-69
2022/05/25 01:44:55;;;;;;;12.58;11.28;;;;;;;15.12;81.48;99806.41;2188272;80;21056;-69
2022/05/25 01:48:00;;;;;;;10.98;9.88;;;;;;;15.13;81.58;99810.72;2182517;80;21457;-69
2022/05/25 01:51:07;;;;;;;11.95;10.85;;;;;;;15.16;81.68;99808.97;2182575;80;21070;-68
2022/05/25 01:54:13;;;;;;;13.15;10.85;;;;;;;15.17;81.79;99811.94;2187536;80;20975;-69
2022/05/25 01:57:16;;;;;;;11.88;10.25;;;;;;;15.16;81.81;99818.33;2184353;80;21010;-68
2022/05/25 02:00:44;;;;;;;12.40;10.50;;;;;;;15.19;81.86;99821.11;2166307;80;21028;-69
2022/05/25 02:07:33;;;;;;;11.75;10.43;;;;;;;15.18;81.85;99822.14;2183777;80;21046;-71
2022/05/25 02:11:10;;;;;;;12.93;11.70;;;;;;;15.17;81.93;99819.95;2185953;80;21025;-68
2022/05/25 02:14:42;;;;;;;11.80;10.60;;;;;;;15.18;82.05;99832.31;2181953;80;21061;-71
2022/05/25 02:18:06;;;;;;;12.00;10.80;;;;;;;15.19;82.04;99812.56;2185667;80;21073;-69
2022/05/25 02:21:30;;;;;;;17.45;11.30;;;;;;;15.20;82.02;99810.23;2189095;80;21044;-67
2022/05/25 02:24:40;;;;;;;12.78;11.43;;;;;;;15.18;82.03;99813.61;2182108;80;21069;-69
2022/05/25 02:27:58;;;;;;;14.07;12.23;;;;;;;15.17;82.13;99808.45;2187915;80;21027;-69
2022/05/25 02:31:02;;;;;;;14.40;12.05;;;;;;;15.18;82.15;99809.59;2188370;80;20931;-71
2022/05/25 02:34:07;;;;;;;12.95;11.73;;;;;;;15.17;82.18;99811.94;2187117;80;20994;-68
2022/05/25 02:37:08;;;;;;;14.10;12.00;;;;;;;15.20;82.18;99812.90;2187539;80;21057;-68
2022/05/25 02:40:12;;;;;;;13.13;11.65;;;;;;;15.21;82.22;99819.88;2188696;80;21008;-68
2022/05/25 02:43:13;;;;;;;15.25;11.70;;;;;;;15.22;82.17;99819.36;2161879;80;21039;-68
2022/05/25 02:46:15;;;;;;;13.10;11.38;;;;;;;15.21;82.05;99821.22;2190348;80;21497;-69
2022/05/25 02:49:17;;;;;;;14.95;12.53;;;;;;;15.22;82.05;99817.50;2184374;80;21075;-69
2022/05/25 02:52:19;;;;;;;12.93;11.68;;;;;;;15.22;82.14;99821.52;2185268;80;21024;-68
2022/05/25 02:55:20;;;;;;;14.30;11.53;;;;;;;15.23;82.17;99823.18;2181774;80;21149;-69
2022/05/25 02:58:22;;;;;;;15.18;11.95;;;;;;;15.25;82.15;99817.61;2186492;80;20991;-74
2022/05/25 03:01:23;;;;;;;14.03;12.25;;;;;;;15.25;82.12;99826.97;2185134;80;20970;-68
2022/05/25 03:04:25;;;;;;;16.35;12.18;;;;;;;15.23;82.13;99821.84;2186155;80;21037;-69
2022/05/25 03:07:26;;;;;;;13.25;11.85;;;;;;;15.24;82.16;99828.82;2177905;80;21004;-68
2022/05/25 03:10:27;;;;;;;14.85;12.70;;;;;;;15.25;82.17;99826.45;2187234;80;21054;-70
2022/05/25 03:13:29;;;;;;;16.37;12.78;;;;;;;15.27;82.24;99828.11;2170727;80;20955;-69
2022/05/25 03:16:32;;;;;;;13.55;12.05;;;;;;;15.27;82.33;99826.77;2185901;80;21038;-70
2022/05/25 03:19:33;;;;;;;13.78;12.45;;;;;;;15.24;82.24;99823.48;2183333;80;21011;-68
2022/05/25 03:22:37;;;;;;;14.13;12.63;;;;;;;15.25;82.36;99832.31;2178005;80;21140;-69
2022/05/25 03:25:38;;;;;;;12.78;11.48;;;;;;;15.24;82.34;99827.48;2179532;80;21019;-80
2022/05/25 03:28:39;;;;;;;12.98;11.68;;;;;;;15.25;82.46;99838.48;2174927;80;21027;-69
2022/05/25 03:31:41;;;;;;;15.13;12.05;;;;;;;15.27;82.41;99844.15;2179330;80;21068;-69
2022/05/25 03:34:42;;;;;;;12.37;11.12;;;;;;;15.29;82.36;99854.10;2177087;80;21048;-68
2022/05/25 03:37:44;;;;;;;12.03;10.65;;;;;;;15.28;82.33;99856.48;2172897;80;20975;-75
2022/05/25 03:40:46;;;;;;;11.93;10.72;;;;;;;15.31;82.40;99860.89;2181140;80;21502;-78
2022/05/25 03:43:47;;;;;;;11.78;10.15;;;;;;;15.33;82.37;99868.72;2178459;80;21091;-71
2022/05/25 03:46:53;;;;;;;13.58;10.58;;;;;;;15.31;82.09;99874.77;2178820;80;20971;-68
2022/05/25 03:49:55;;;;;;;12.82;9.60;;;;;;;15.27;82.14;99879.72;2182861;80;21144;-67
2022/05/25 03:52:56;;;;;;;11.25;10.15;;;;;;;15.23;82.12;99875.78;2175160;80;21444;-70
2022/05/25 03:55:58;;;;;;;10.72;9.63;;;;;;;15.22;82.21;99880.31;2180821;80;21057;-68
2022/05/25 03:58:59;;;;;;;10.10;9.08;;;;;;;15.22;82.12;99882.16;2184415;80;20986;-68
2022/05/25 04:02:01;;;;;;;11.85;10.25;;;;;;;15.21;82.29;99880.02;2184216;80;22238;-68
2022/05/25 04:05:09;;;;;;;11.97;9.73;;;;;;;15.20;82.21;99879.72;2183150;80;21052;-69
2022/05/25 04:08:12;;;;;;;11.25;9.55;;;;;;;15.19;82.19;99887.92;2183992;80;21007;-74
2022/05/25 04:11:13;;;;;;;11.50;10.32;;;;;;;15.17;82.22;99892.63;2187466;80;21028;-70
2022/05/25 04:14:15;;;;;;;15.10;9.90;;;;;;;15.15;82.24;99891.52;2194728;80;20996;-69
2022/05/25 04:17:19;;;;;;;11.60;9.73;;;;;;;15.14;82.23;99890.37;2185909;80;21487;-67
2022/05/25 04:20:22;;;;;;;10.72;9.63;;;;;;;15.14;82.27;99892.52;2187377;80;21019;-69
2022/05/25 04:23:26;;;;;;;12.18;10.03;;;;;;;15.15;82.19;99892.85;2185370;80;21121;-70
2022/05/25 04:26:28;;;;;;;15.65;10.18;;;;;;;15.13;82.15;99899.42;2185042;80;21090;-68
2022/05/25 04:29:29;;;;;;;13.75;9.93;;;;;;;15.07;82.09;99903.72;2186264;80;20939;-70
2022/05/25 04:32:30;;;;;;;14.28;10.80;;;;;;;15.08;82.19;99911.22;2184921;80;20963;-68
2022/05/25 04:35:32;;;;;;;12.15;10.72;;;;;;;15.06;82.24;99911.41;2183833;80;21037;-77
2022/05/25 04:38:33;;;;;;;14.80;11.28;;;;;;;15.07;82.34;99914.93;2186874;80;21512;-67
2022/05/25 04:41:36;;;;;;;11.60;10.43;;;;;;;15.06;82.18;99916.75;2187761;80;20963;-69
2022/05/25 04:44:37;;;;;;;13.28;10.80;;;;;;;15.07;82.11;99920.27;2185627;80;21084;-70
2022/05/25 04:47:40;;;;;;;13.50;10.53;;;;;;;15.09;82.25;99927.06;2190495;80;20962;-73
2022/05/25 04:50:45;;;;;;;9.53;8.43;;;;;;;15.10;82.11;99926.55;2186435;80;21500;-73
2022/05/25 04:53:46;;;;;;;10.85;9.60;;;;;;;15.09;81.75;99921.72;2186911;80;21020;-68
2022/05/25 05:00:08;;;;;;;11.55;7.62;;;;;;;15.10;81.63;99933.23;2191246;80;21028;-68
2022/05/25 05:03:10;;;;;;;10.40;7.45;;;;;;;15.04;81.11;99933.52;2188422;80;20953;-68
2022/05/25 05:06:12;;;;;;;9.33;7.25;;;;;;;15.00;81.09;99938.94;2185705;80;21029;-68
2022/05/25 05:09:15;;;;;;;9.00;8.10;;;;;;;14.98;81.14;99947.16;2185531;80;21050;-70
2022/05/25 05:12:16;;;;;;;7.62;6.87;;;;;;;14.91;81.12;99957.50;2178830;80;20964;-70
2022/05/25 05:15:17;;;;;;;8.95;7.00;;;;;;;14.88;81.27;99953.38;2179333;80;21044;-68
2022/05/25 05:18:23;;;;;;;8.28;7.10;;;;;;;14.88;81.26;99960.57;2174501;80;20980;-67
2022/05/25 05:21:35;;;;;;;12.28;7.72;;;;;;;14.86;81.35;99960.76;2128029;80;21061;-67
2022/05/25 05:24:37;;;;;;;12.90;7.30;;;;;;;14.87;81.41;99964.28;2180041;80;20963;-69
2022/05/25 05:27:39;;;;;;;10.15;8.20;;;;;;;14.89;81.25;99966.22;2170293;80;21556;-73
2022/05/25 05:30:51;;;;;;;8.63;7.15;;;;;;;14.89;81.31;99964.36;2177292;80;21007;-68
2022/05/25 05:33:53;;;;;;;8.40;6.53;;;;;;;14.87;81.04;99973.62;2173246;80;20997;-67
2022/05/25 05:37:00;;;;;;;9.73;5.72;;;;;;;14.74;80.71;99973.85;2180299;80;21039;-67
2022/05/25 05:40:05;;;;;;;9.23;5.85;;;;;;;14.59;80.53;99973.68;2178672;79;21561;-67
2022/05/25 05:43:08;;;;;;;9.13;5.95;;;;;;;14.41;80.43;99988.81;2180112;80;20943;-66
2022/05/25 05:46:10;;;;;;;6.47;5.45;;;;;;;14.32;80.67;99982.28;2183213;80;20983;-67
2022/05/25 05:49:13;;;;;;;4.75;4.35;;;;;;;14.19;80.61;99982.69;2161399;81;21030;-66
2022/05/25 05:52:15;;;;;;;5.62;4.28;;;;;;;14.10;80.59;99996.68;2180489;80;21066;-72
2022/05/25 05:55:18;;;;;;;5.15;4.65;;;;;;;13.88;80.34;99995.87;2177144;80;22224;-68
2022/05/25 05:58:20;;;;;;;5.75;4.22;;;;;;;13.77;80.46;99991.05;2183308;80;21030;-69
2022/05/25 06:01:21;;;;;;;7.55;4.35;;;;;;;13.66;80.51;100001.22;2183259;80;21516;-67
2022/05/25 06:04:22;;;;;;;5.37;3.58;;;;;;;13.59;80.47;100002.16;2174225;80;21014;-67
2022/05/25 06:07:23;;;;;;;4.17;3.42;;;;;;;13.60;80.50;100002.46;2180548;79;21086;-67
2022/05/25 06:10:26;;;;;;;3.75;3.37;;;;;;;13.56;80.26;99992.70;2180454;79;21043;-67
2022/05/25 06:13:27;;;;;;;4.08;3.20;;;;;;;13.57;80.21;99994.84;2186059;80;21077;-68
2022/05/25 06:19:33;;;;;;;9.13;3.40;;;;;;;13.57;80.08;100003.70;2170675;80;21066;-67
2022/05/25 06:22:35;;;;;;;3.42;3.05;;;;;;;13.61;80.33;100003.63;2178731;80;21404;-68
2022/05/25 06:25:36;;;;;;;4.17;3.52;;;;;;;13.62;80.08;99997.78;2181720;80;20995;-67
2022/05/25 06:28:37;;;;;;;3.80;3.50;;;;;;;13.67;80.20;100002.04;2176463;80;20970;-67
2022/05/25 06:31:39;;;;;;;3.65;2.80;;;;;;;13.74;80.27;100008.28;2181335;80;21094;-69
2022/05/25 06:34:42;;;;;;;3.27;2.98;;;;;;;13.82;80.13;100011.30;2183191;80;21093;-68
2022/05/25 06:37:43;;;;;;;3.20;2.90;;;;;;;13.83;79.91;100017.80;2179152;80;21093;-68
2022/05/25 06:40:44;;;;;;;3.52;3.22;;;;;;;13.87;79.86;100023.56;2183747;80;20986;-69
2022/05/25 06:43:46;;;;;;;4.30;3.65;;;;;;;13.87;79.84;100029.72;2179087;80;21480;-68
2022/05/25 06:46:48;;;;;;;3.25;2.87;;;;;;;13.87;79.76;100044.39;2179040;80;21029;-67
2022/05/25 06:49:53;;;;;;;3.65;3.33;;;;;;;13.88;79.28;100046.55;2171299;80;22429;-71
2022/05/25 06:52:54;;;;;;;5.30;3.65;;;;;;;13.92;79.74;100049.68;2181819;80;21442;-67
2022/05/25 06:55:55;;;;;;;4.47;3.90;;;;;;;13.89;79.69;100049.03;2176609;80;21031;-67
2022/05/25 06:58:57;;;;;;;4.67;4.28;;;;;;;13.95;79.88;100049.30;2177118;80;21460;-75
2022/05/25 07:01:59;;;;;;;4.05;3.65;;;;;;;13.99;79.96;100052.70;2181958;80;21368;-68
2022/05/25 07:05:00;;;;;;;3.30;2.95;;;;;;;13.96;79.98;100048.27;2179012;80;21053;-70
2022/05/25 07:08:01;;;;;;;4.00;3.40;;;;;;;13.92;79.54;100056.34;2150263;80;21571;-68
2022/05/25 07:11:03;;;;;;;3.33;2.95;;;;;;;13.86;79.40;100058.75;2145793;82;21088;-68
2022/05/25 07:14:06;;;;;;;4.22;3.27;;;;;;;13.87;79.47;100060.39;2147523;82;21083;-69
2022/05/25 07:17:08;;;;;;;3.83;3.35;;;;;;;13.92;79.48;100063.84;2143213;82;21465;-69
2022/05/25 07:20:10;;;;;;;4.10;3.70;;;;;;;14.02;79.75;100066.17;2147733;82;20998;-74
2022/05/25 07:23:12;;;;;;;4.97;3.20;;;;;;;14.10;79.56;100067.38;2141047;82;21505;-67
2022/05/25 07:26:14;;;;;;;4.70;3.15;;;;;;;14.12;79.11;100072.03;2143924;81;21022;-70
2022/05/25 07:29:15;;;;;;;5.05;2.70;;;;;;;14.14;78.71;100070.01;2143432;82;21012;-70
2022/05/25 07:32:18;;;;;;;3.37;3.08;;;;;;;14.07;78.23;100071.77;2147679;82;21430;-67
2022/05/25 07:35:20;;;;;;;8.58;3.10;;;;;;;14.07;78.70;100077.92;2143622;82;22384;-67
2022/05/25 07:38:21;;;;;;;4.33;2.85;;;;;;;14.15;78.60;100082.32;2140802;82;21503;-67
2022/05/25 07:41:23;;;;;;;3.80;2.83;;;;;;;14.22;78.85;100083.22;2145055;82;21023;-68
2022/05/25 07:44:29;;;;;;;4.15;2.67;;;;;;;14.29;78.74;100086.76;2146641;82;21004;-68
2022/05/25 07:47:33;;;;;;;4.60;2.75;;;;;;;14.37;78.63;100091.14;2123923;82;20952;-68
2022/05/25 07:50:37;;;;;;;7.87;2.95;;;;;;;14.46;78.23;100093.98;2148538;82;21052;-67
2022/05/25 07:54:02;;;;;;;3.42;2.27;;;;;;;14.51;78.06;100097.42;2144192;82;21474;-67
2022/05/25 07:56:59;;;;;;;2.52;2.33;;;;;;;14.55;77.59;100100.05;2145938;82;21007;-67
2022/05/25 08:00:02;;;;;;;2.98;2.50;;;;;;;14.54;77.30;100103.23;2144689;82;21018;-68
2022/05/25 08:06:23;;;;;;;2.98;2.62;;;;;;;14.55;77.30;100105.38;2150136;80;21045;-66
2022/05/25 08:09:25;;;;;;;2.83;2.62;;;;;;;14.56;77.06;100105.72;2191123;79;21420;-66
2022/05/25 08:12:30;;;;;;;4.08;3.20;;;;;;;14.46;77.05;100102.52;2198422;79;21528;-66
2022/05/25 08:15:33;;;;;;;3.22;2.83;;;;;;;14.37;77.23;100111.16;2191859;79;21479;-72
2022/05/25 08:18:35;;;;;;;4.20;2.77;;;;;;;14.41;77.20;100107.59;2187654;79;21027;-66
2022/05/25 08:21:36;;;;;;;6.58;3.02;;;;;;;14.45;77.25;100112.89;2193214;79;21081;-66
2022/05/25 08:24:38;;;;;;;4.22;3.22;;;;;;;14.46;76.98;100117.20;2190413;79;21043;-71
2022/05/25 08:27:39;;;;;;;6.03;3.58;;;;;;;14.54;77.35;100112.58;2196684;80;21508;-68
2022/05/25 08:30:44;;;;;;;5.53;3.75;;;;;;;14.61;77.28;100109.95;2192839;79;20959;-65
2022/05/25 08:33:45;;;;;;;4.70;3.15;;;;;;;14.70;77.28;100116.82;2186462;79;20947;-67
2022/05/25 08:36:46;;;;;;;4.42;3.40;;;;;;;14.71;77.16;100113.12;2187178;80;20976;-67
2022/05/25 08:39:48;;;;;;;6.20;3.55;;;;;;;14.76;77.24;100116.55;2190303;79;20933;-67
2022/05/25 08:42:57;;;;;;;5.53;3.42;;;;;;;14.87;77.45;100124.55;2190583;79;21030;-66
2022/05/25 08:46:03;;;;;;;4.12;3.12;;;;;;;14.95;77.34;100125.71;2196546;79;20945;-66
2022/05/25 08:49:13;;;;;;;6.15;4.08;;;;;;;15.03;77.18;100129.58;2194340;80;21009;-66
2022/05/25 08:52:25;;;;;;;3.47;3.17;;;;;;;15.10;77.32;100132.31;2171834;80;21071;-68
2022/05/25 08:55:54;;;;;;;3.47;3.17;;;;;;;15.11;76.67;100128.09;2197618;80;21054;-66
2022/05/25 08:59:12;;;;;;;4.35;3.05;;;;;;;14.91;76.26;100123.95;2193776;80;21053;-68
2022/05/25 09:02:45;;;;;;;5.42;3.40;;;;;;;14.77;76.48;100125.70;2170867;79;20959;-68
2022/05/25 09:06:01;;;;;;;4.70;3.10;;;;;;;14.72;76.38;100124.11;2192417;79;21062;-67
2022/05/25 09:09:14;;;;;;;4.58;2.52;;;;;;;14.72;76.86;100124.63;2199258;79;20986;-67
2022/05/25 09:12:39;;;;;;;5.55;2.87;;;;;;;14.72;76.61;100125.95;2171414;79;20948;-68
2022/05/25 09:19:15;;;;;;;4.42;3.67;;;;;;;14.65;76.87;100116.57;2185877;79;20954;-68
2022/05/25 09:22:21;;;;;;;3.55;3.17;;;;;;;14.59;76.51;100112.01;2179978;80;21419;-68
2022/05/25 09:25:24;;;;;;;4.42;3.10;;;;;;;14.55;76.99;100113.39;2194671;79;20955;-76
2022/05/25 09:28:35;;;;;;;3.65;3.10;;;;;;;14.54;77.38;100106.41;2193176;80;20963;-67
2022/05/25 09:31:48;;;;;;;7.78;3.72;;;;;;;14.54;77.32;100106.41;2190479;79;20991;-68
2022/05/25 09:35:06;;;;;;;3.90;3.17;;;;;;;14.48;77.70;100109.31;2191919;79;20966;-70
2022/05/25 09:38:31;;;;;;;5.58;3.58;;;;;;;14.51;78.08;100098.77;2176857;80;21549;-68
2022/05/25 09:41:33;;;;;;;5.20;3.15;;;;;;;14.48;78.20;100093.30;2189288;80;21460;-66
2022/05/25 09:44:35;;;;;;;3.70;3.27;;;;;;;14.41;77.74;100095.58;2190618;79;21001;-69
2022/05/25 09:47:44;;;;;;;3.20;2.90;;;;;;;14.49;77.85;100091.45;2196982;79;20990;-71
2022/05/25 09:50:50;;;;;;;3.70;2.40;;;;;;;14.50;77.90;100096.61;2201182;79;20965;-67
2022/05/25 09:53:57;;;;;;;3.77;2.60;;;;;;;14.48;77.29;100104.48;2173384;79;21307;-66
2022/05/25 09:57:19;;;;;;;5.65;2.70;;;;;;;14.61;77.62;100123.81;2191558;79;21541;-73
2022/05/25 10:00:37;;;;;;;3.47;2.72;;;;;;;14.84;77.65;100127.58;2166282;79;21076;-67
2022/05/25 10:03:42;;;;;;;3.98;2.90;;;;;;;14.99;77.01;100116.30;2197242;79;21480;-69
2022/05/25 10:06:50;;;;;;;3.17;2.90;;;;;;;15.13;77.20;100115.88;2187419;80;21505;-74
2022/05/25 10:09:53;;;;;;;4.10;3.10;;;;;;;15.25;76.49;100122.31;2192667;80;21056;-75
2022/05/25 10:13:03;;;;;;;4.17;3.00;;;;;;;15.37;75.76;100123.91;2171028;80;20973;-68
2022/05/25 10:16:28;;;;;;;3.92;3.00;;;;;;;15.50;76.14;100117.82;2195897;80;21040;-68
2022/05/25 10:19:32;;;;;;;3.52;3.20;;;;;;;15.59;75.90;100110.75;2191283;80;21014;-69
2022/05/25 10:22:42;;;;;;;3.17;2.87;;;;;;;15.81;76.16;100127.54;2199849;80;20993;-67
2022/05/25 10:25:54;;;;;;;3.08;2.77;;;;;;;15.92;75.92;100128.81;2194574;80;21066;-71
2022/05/25 10:29:02;;;;;;;3.00;2.70;;;;;;;16.04;75.83;100130.38;2188365;80;21035;-69
2022/05/25 10:39:32;;;;;;;3.25;2.60;;;;;;;16.44;74.83;100133.94;2191343;80;21057;-69
2022/05/25 10:42:45;;;;;;;3.40;2.58;;;;;;;16.43;74.46;100138.18;2189254;80;21443;-69
2022/05/25 10:45:51;;;;;;;5.95;3.22;;;;;;;16.44;74.42;100135.80;2190206;80;21049;-73
2022/05/25 10:48:55;;;;;;;3.17;2.87;;;;;;;16.36;74.02;100135.51;2191568;80;21486;-77
2022/05/25 10:52:14;;;;;;;3.02;2.72;;;;;;;16.30;74.29;100141.16;2191781;80;21079;-68
2022/05/25 10:55:15;;;;;;;4.42;2.62;;;;;;;16.34;74.31;100130.86;2194534;80;21045;-68
2022/05/25 10:58:25;;;;;;;3.95;3.10;;;;;;;16.31;74.45;100125.40;2191058;80;21037;-68
2022/05/25 11:01:58;;;;;;;4.67;2.60;;;;;;;16.44;74.76;100122.41;2185751;79;21050;-69
2022/05/25 11:05:33;;;;;;;3.45;2.87;;;;;;;16.57;74.38;100112.53;2186478;80;21049;-68
2022/05/25 11:09:16;;;;;;;3.92;2.80;;;;;;;16.72;73.64;100107.48;2130792;81;20976;-69
2022/05/25 11:12:38;;;;;;;4.30;2.92;;;;;;;16.83;73.50;100119.46;2148072;81;21074;-72
2022/05/25 11:16:05;;;;;;;3.70;2.92;;;;;;;16.86;73.25;100131.92;2145816;81;21033;-69
2022/05/25 11:19:20;;;;;;;5.00;4.60;;;;;;;16.91;73.09;100133.98;2146435;81;21432;-68
2022/05/25 11:22:42;;;;;;;3.47;3.12;;;;;;;16.84;73.14;100124.63;2146669;81;21050;-67
2022/05/25 11:25:54;;;;;;;3.62;3.20;;;;;;;16.86;73.24;100117.70;2148850;82;21048;-69
2022/05/25 11:29:22;;;;;;;3.40;3.02;;;;;;;17.01;73.61;100123.16;2147914;81;21003;-67
2022/05/25 11:32:29;;;;;;;3.40;2.83;;;;;;;17.11;73.36;100124.58;2142927;81;21588;-71
2022/05/25 11:35:58;;;;;;;2.90;2.60;;;;;;;17.16;73.19;100123.44;2141717;81;21030;-72
2022/05/25 11:39:04;;;;;;;5.87;4.08;;;;;;;17.23;73.02;100120.20;2148335;81;20990;-68
2022/05/25 11:42:42;;;;;;;3.20;2.90;;;;;;;17.18;72.42;100126.22;2142346;81;21313;-68
2022/05/25 11:46:14;;;;;;;4.10;2.98;;;;;;;17.18;72.34;100125.41;2146804;81;21041;-68
2022/05/25 11:49:36;;;;;;;5.55;2.80;;;;;;;17.21;72.10;100131.69;2146462;81;21494;-73
2022/05/25 11:52:55;;;;;;;4.10;2.90;;;;;;;17.18;71.54;100135.61;2148818;81;21051;-68
2022/05/25 11:56:10;;;;;;;3.70;2.65;;;;;;;17.15;71.50;100149.43;2143419;81;21022;-68
2022/05/25 11:59:40;;;;;;;3.22;2.65;;;;;;;17.05;71.55;100152.22;2114864;81;21519;-68
2022/05/25 12:03:08;;;;;;;2.80;2.60;;;;;;;16.77;70.92;100151.41;2144303;81;21478;-70
2022/05/25 12:06:43;;;;;;;3.42;2.70;;;;;;;16.55;71.30;100150.74;2144237;81;21066;-74
2022/05/25 12:10:02;;;;;;;3.87;2.50;;;;;;;16.59;71.94;100161.38;2191431;80;21031;-72
2022/05/25 12:13:21;;;;;;;4.60;2.37;;;;;;;16.66;71.77;100151.99;2198856;79;21112;-67
2022/05/25 12:16:30;;;;;;;3.55;2.85;;;;;;;16.81;71.50;100151.84;2193265;80;21064;-70
2022/05/25 12:19:35;;;;;;;6.75;2.70;;;;;;;16.91;71.32;100158.92;2193156;80;21753;-68
2022/05/25 12:22:39;;;;;;;4.80;2.50;;;;;;;16.98;71.21;100163.78;2192499;80;21014;-69
2022/05/25 12:25:46;;;;;;;6.12;2.70;;;;;;;17.05;70.87;100165.63;2190243;80;20998;-67
2022/05/25 12:28:51;;;;;;;7.90;2.55;;;;;;;17.11;70.91;100164.79;2190334;80;20996;-68
2022/05/25 12:31:56;;;;;;;4.10;2.70;;;;;;;17.11;70.67;100157.56;2186307;80;21022;-68
2022/05/25 12:34:58;;;;;;;4.03;2.50;;;;;;;17.09;70.58;100158.80;2195594;80;21466;-70
2022/05/25 12:38:02;;;;;;;3.45;2.25;;;;;;;17.07;70.73;100159.03;2186660;80;21046;-67
2022/05/25 12:41:35;;;;;;;2.58;2.37;;;;;;;17.02;70.49;100154.28;2162407;80;21010;-68
2022/05/25 12:51:41;;;;;;;2.60;2.05;;;;;;;16.96;70.42;100162.34;2194915;80;21045;-74
2022/05/25 12:54:43;;;;;;;2.12;1.98;;;;;;;16.89;69.96;100161.50;2189861;80;21116;-68
2022/05/25 12:57:51;;;;;;;2.00;1.90;;;;;;;16.79;70.25;100165.43;2191376;80;21092;-67
2022/05/25 13:01:16;;;;;;;3.15;2.27;;;;;;;16.80;70.39;100159.03;2193936;80;21011;-67
2022/05/25 13:04:44;;;;;;;2.62;2.37;;;;;;;16.94;70.88;100163.88;2194138;80;20965;-69
2022/05/25 13:07:47;;;;;;;2.45;2.25;;;;;;;17.08;71.02;100166.03;2182210;80;21016;-69
2022/05/25 13:11:01;;;;;;;3.12;2.83;;;;;;;17.19;70.71;100165.91;2161951;80;21506;-68
2022/05/25 13:14:16;;;;;;;3.58;2.83;;;;;;;17.20;70.72;100163.53;2172919;80;20982;-69
2022/05/25 13:17:46;;;;;;;3.33;2.95;;;;;;;17.14;71.04;100161.16;2160762;80;21021;-77
2022/05/25 13:20:56;;;;;;;2.55;2.35;;;;;;;17.15;71.32;100156.13;2157136;80;21002;-67
2022/05/25 13:24:06;;;;;;;3.05;2.67;;;;;;;17.21;71.32;100158.50;2162557;80;21057;-67
2022/05/25 13:27:15;;;;;;;5.20;2.80;;;;;;;17.23;71.40;100157.75;2163766;80;21003;-72
2022/05/25 13:30:41;;;;;;;3.67;2.67;;;;;;;17.28;71.42;100166.52;2166927;80;20979;-68
2022/05/25 13:33:45;;;;;;;4.00;3.40;;;;;;;17.28;71.58;100169.20;2165365;80;21036;-67
2022/05/25 13:36:55;;;;;;;4.53;2.72;;;;;;;17.20;71.51;100161.70;2164835;80;21051;-67
2022/05/25 13:39:56;;;;;;;5.72;3.10;;;;;;;17.16;71.34;100160.97;2158910;80;21018;-74
2022/05/25 13:43:00;;;;;;;4.67;3.20;;;;;;;17.11;71.13;100161.59;2167030;80;20956;-68
2022/05/25 13:46:01;;;;;;;3.98;3.15;;;;;;;17.12;71.69;100171.30;2161645;80;21025;-69
2022/05/25 13:49:09;;;;;;;3.62;3.33;;;;;;;17.11;71.48;100168.81;2163364;80;21046;-70
2022/05/25 13:52:25;;;;;;;3.67;3.37;;;;;;;17.15;71.75;100167.38;2172749;80;21053;-68
2022/05/25 13:55:34;;;;;;;3.77;3.17;;;;;;;17.21;72.22;100164.67;2159043;80;22170;-68
2022/05/25 13:58:45;;;;;;;5.03;3.50;;;;;;;17.21;71.60;100165.20;2168723;80;20990;-78
2022/05/25 14:01:46;;;;;;;3.95;3.30;;;;;;;17.21;71.83;100172.72;2162715;80;20998;-69
2022/05/25 14:04:49;;;;;;;5.50;3.80;;;;;;;17.15;71.76;100168.20;2163247;80;21031;-68
2022/05/25 14:07:52;;;;;;;4.70;4.00;;;;;;;17.10;72.00;100170.67;2165701;80;21049;-68
2022/05/25 14:11:02;;;;;;;6.22;4.55;;;;;;;17.12;72.32;100168.61;2187330;80;21423;-73
2022/05/25 14:14:10;;;;;;;;;;;;;;;17.14;72.75;100158.48;2197365;80;21088;-70
2022/05/25 14:17:25;;;;;;;5.70;5.10;;;;;;;17.10;72.46;100161.81;2189806;80;20136;-70
2022/05/25 14:20:26;;;;;;;5.87;5.25;;;;;;;17.02;72.85;100165.00;2195372;80;20990;-68
2022/05/25 14:23:30;;;;;;;5.40;5.00;;;;;;;17.06;73.25;100164.06;2172182;80;20969;-75
2022/05/25 14:26:36;;;;;;;6.33;5.60;;;;;;;17.10;73.09;100163.97;2185200;80;21020;-67
2022/05/25 14:29:39;;;;;;;6.75;5.08;;;;;;;17.11;73.31;100164.79;2188137;80;21045;-70
2022/05/25 14:32:46;;;;;;;6.22;4.80;;;;;;;17.08;73.25;100160.66;2192051;80;21419;-68
2022/05/25 14:35:50;;;;;;;8.30;4.92;;;;;;;17.05;73.33;100157.59;2167421;80;21038;-67
2022/05/25 14:38:53;;;;;;;7.03;5.00;;;;;;;17.03;73.70;100150.59;2188591;80;21034;-67
2022/05/25 14:42:17;;;;;;;4.83;4.40;;;;;;;16.98;73.68;100157.08;2188904;80;20975;-74
2022/05/25 14:45:21;;;;;;;4.97;4.08;;;;;;;16.98;73.87;100152.24;2194410;80;21031;-77
2022/05/25 14:48:22;;;;;;;5.30;4.40;;;;;;;17.06;74.31;100154.67;2189880;80;21592;-68
2022/05/25 14:51:40;;;;;;;6.30;4.22;;;;;;;17.10;74.23;100149.75;2189568;80;21071;-69
2022/05/25 14:54:42;;;;;;;5.28;4.78;;;;;;;17.16;74.11;100155.09;2193631;80;21018;-68
2022/05/25 14:57:44;;;;;;;5.17;3.85;;;;;;;17.14;74.23;100153.64;2194400;80;21110;-73
2022/05/25 15:00:56;;;;;;;5.67;4.33;;;;;;;17.16;74.45;100159.63;2183941;80;21029;-69
2022/05/25 15:04:05;;;;;;;5.65;4.78;;;;;;;17.17;74.58;100153.23;2191852;80;22200;-70
2022/05/25 15:07:06;;;;;;;5.35;4.67;;;;;;;17.16;74.42;100154.27;2188867;80;20961;-70